Time;durP1;ratioP1;P1;durP2;ratioP2;P2;SDS_P1;SDS_P2;PMS_P1;PMS_P2;Temp;Humidity;BMP_temperature;BMP_pressure;BME280_temperature;BME280_humidity;BME280_pressure;Samples;Min_cycle;Max_cycle;Signal;HPM_P1;HPM_P2
2022/04/10 00:01:39;;;;;;;;;;;;;;;7.30;100.00;97842.03;5075695;28;19990;-74
2022/04/10 00:04:05;;;;;;;;;;;;;;;7.39;100.00;97853.84;5072635;28;19925;-74
2022/04/10 00:06:32;;;;;;;;;;;;;;;7.52;100.00;97864.13;5073761;28;19992;-72
2022/04/10 00:08:59;;;;;;;;;;;;;;;7.33;100.00;97862.81;5078201;28;19932;-73
2022/04/10 00:11:26;;;;;;;;;;;;;;;6.94;100.00;97861.09;5077090;28;19927;-74
2022/04/10 00:13:52;;;;;;;;;;;;;;;6.76;100.00;97866.63;5067297;28;19991;-75
2022/04/10 00:16:19;;;;;;;;;;;;;;;6.84;100.00;97858.28;5078567;28;19921;-75
2022/04/10 00:18:45;;;;;;;;;;;;;;;6.98;100.00;97867.53;5076581;28;19950;-74
2022/04/10 00:21:11;;;;;;;;;;;;;;;7.04;100.00;97874.53;5075289;28;19921;-73
2022/04/10 00:23:38;;;;;;;;;;;;;;;7.19;100.00;97877.44;5076630;28;19960;-71
2022/04/10 00:26:06;;;;;;;;;;;;;;;6.98;100.00;97883.47;5076662;28;19928;-73
2022/04/10 00:28:32;;;;;;;;;;;;;;;7.17;100.00;97879.53;5076971;28;19931;-73
2022/04/10 00:30:59;;;;;;;;;;;;;;;7.16;100.00;97871.81;5073303;28;19924;-73
2022/04/10 00:33:25;;;;;;;;;;;;;;;7.28;100.00;97873.31;5074229;28;19936;-75
2022/04/10 00:35:52;;;;;;;;;;;;;;;7.28;100.00;97885.81;5066193;28;19920;-73
2022/04/10 00:38:20;;;;;;;;;;;;;;;7.37;100.00;97885.16;5073917;28;19988;-74
2022/04/10 00:40:46;;;;;;;;;;;;;;;7.13;100.00;97886.38;5076759;28;19987;-74
2022/04/10 00:43:15;;;;;;;;;;;;;;;7.42;100.00;97882.59;5066163;28;20329;-72
2022/04/10 00:45:42;;;;;;;;;;;;;;;7.52;100.00;97885.38;5068617;28;19935;-72
2022/04/10 00:48:09;;;;;;;;;;;;;;;7.58;100.00;97888.94;5072367;28;19928;-73
2022/04/10 00:50:35;;;;;;;;;;;;;;;7.52;100.00;97887.25;5072297;28;19925;-74
2022/04/10 00:53:02;;;;;;;;;;;;;;;7.18;100.00;97891.75;5060583;28;19966;-74
2022/04/10 00:55:29;;;;;;;;;;;;;;;7.36;100.00;97891.53;5070408;28;19921;-75
2022/04/10 00:57:56;;;;;;;;;;;;;;;7.46;100.00;97893.50;5060484;28;19925;-73
2022/04/10 01:00:23;;;;;;;;;;;;;;;7.57;100.00;97893.44;5073129;28;20639;-72
2022/04/10 01:02:50;;;;;;;;;;;;;;;7.62;100.00;97890.03;5076319;28;19921;-70
2022/04/10 01:05:16;;;;;;;;;;;;;;;7.40;100.00;97895.28;5079745;28;19935;-73
2022/04/10 01:07:42;;;;;;;;;;;;;;;7.28;100.00;97891.91;5076646;28;19920;-73
2022/04/10 01:10:09;;;;;;;;;;;;;;;7.15;100.00;97894.13;5074392;28;19963;-72
2022/04/10 01:12:36;;;;;;;;;;;;;;;7.14;100.00;97895.97;5076109;28;19925;-71
2022/04/10 01:15:04;;;;;;;;;;;;;;;6.78;100.00;97891.06;5077645;28;19921;-74
2022/04/10 01:17:32;;;;;;;;;;;;;;;6.96;100.00;97896.19;5076065;28;20230;-72
2022/04/10 01:19:58;;;;;;;;;;;;;;;7.13;100.00;97898.84;5071820;28;19925;-72
2022/04/10 01:22:32;;;;;;;;;;;;;;;7.76;100.00;97893.16;5071635;28;19936;-72
2022/04/10 01:24:59;;;;;;;;;;;;;;;7.70;100.00;97888.81;5078005;28;19925;-76
2022/04/10 01:27:26;;;;;;;;;;;;;;;7.55;100.00;97898.19;5069468;28;19971;-73
2022/04/10 01:29:52;;;;;;;;;;;;;;;7.61;100.00;97894.53;5064721;28;19936;-74
2022/04/10 01:32:18;;;;;;;;;;;;;;;7.49;100.00;97893.84;5073445;28;19924;-73
2022/04/10 01:34:45;;;;;;;;;;;;;;;7.59;100.00;97898.50;5075536;28;19985;-72
2022/04/10 01:37:12;;;;;;;;;;;;;;;7.65;100.00;97897.53;5076687;28;20723;-73
2022/04/10 01:39:39;;;;;;;;;;;;;;;7.64;100.00;97900.44;5073482;28;20238;-73
2022/04/10 01:42:06;;;;;;;;;;;;;;;7.59;100.00;97901.97;5071484;28;19951;-73
2022/04/10 01:44:39;;;;;;;;;;;;;;;7.69;100.00;97900.50;5072837;28;20676;-73
2022/04/10 01:47:06;;;;;;;;;;;;;;;7.52;100.00;97896.00;5071620;28;19925;-74
2022/04/10 01:49:32;;;;;;;;;;;;;;;7.41;100.00;97896.09;5072019;28;20404;-73
2022/04/10 01:51:59;;;;;;;;;;;;;;;7.31;100.00;97896.75;5076245;28;19960;-73
2022/04/10 01:54:25;;;;;;;;;;;;;;;7.41;100.00;97904.88;5076088;28;19939;-73
2022/04/10 01:56:53;;;;;;;;;;;;;;;7.55;100.00;97887.53;5074787;28;19980;-73
2022/04/10 01:59:19;;;;;;;;;;;;;;;7.65;100.00;97891.41;5076481;28;19925;-73
2022/04/10 02:01:46;;;;;;;;;;;;;;;7.68;100.00;97899.69;5078998;28;19988;-74
2022/04/10 02:04:12;;;;;;;;;;;;;;;7.54;100.00;97903.75;5079914;28;19924;-74
2022/04/10 02:06:38;;;;;;;;;;;;;;;7.08;100.00;97899.56;5078217;28;19931;-73
2022/04/10 02:09:06;;;;;;;;;;;;;;;7.24;100.00;97901.41;5076259;28;19984;-73
2022/04/10 02:11:33;;;;;;;;;;;;;;;7.15;100.00;97897.56;5076925;28;19964;-73
2022/04/10 02:14:00;;;;;;;;;;;;;;;7.02;100.00;97896.00;5072784;28;19920;-74
2022/04/10 02:16:27;;;;;;;;;;;;;;;7.22;100.00;97886.78;5079650;28;19946;-73
2022/04/10 02:18:53;;;;;;;;;;;;;;;7.34;100.00;97893.59;5066739;28;20003;-73
2022/04/10 02:21:20;;;;;;;;;;;;;;;7.55;100.00;97900.84;5075323;28;19925;-73
2022/04/10 02:23:46;;;;;;;;;;;;;;;7.63;100.00;97893.50;5078653;28;20321;-73
2022/04/10 02:26:13;;;;;;;;;;;;;;;7.62;100.00;97900.66;5079476;28;19924;-74
2022/04/10 02:28:39;;;;;;;;;;;;;;;7.64;100.00;97900.44;5077959;28;19993;-74
2022/04/10 02:31:07;;;;;;;;;;;;;;;7.70;100.00;97902.13;5076138;28;19925;-74
2022/04/10 02:33:33;;;;;;;;;;;;;;;7.47;100.00;97895.13;5076934;28;19995;-73
2022/04/10 02:36:00;;;;;;;;;;;;;;;7.56;100.00;97901.66;5079747;28;19959;-74
2022/04/10 02:38:26;;;;;;;;;;;;;;;7.51;100.00;97905.03;5078339;28;19929;-73
2022/04/10 02:40:52;;;;;;;;;;;;;;;7.43;100.00;97902.78;5066557;28;19929;-74
2022/04/10 02:43:19;;;;;;;;;;;;;;;7.55;100.00;97903.50;5068964;28;19927;-74
2022/04/10 02:45:45;;;;;;;;;;;;;;;7.53;100.00;97892.31;5077417;28;19970;-73
2022/04/10 02:48:13;;;;;;;;;;;;;;;7.66;100.00;97899.13;5079735;28;19924;-73
2022/04/10 02:50:40;;;;;;;;;;;;;;;7.59;100.00;97904.63;5076379;28;19924;-73
2022/04/10 02:53:07;;;;;;;;;;;;;;;7.65;100.00;97912.66;5076271;28;19925;-73
2022/04/10 02:55:34;;;;;;;;;;;;;;;7.66;100.00;97908.97;5076998;28;19921;-73
2022/04/10 02:58:00;;;;;;;;;;;;;;;7.76;100.00;97917.91;5079257;28;19931;-74
2022/04/10 03:00:27;;;;;;;;;;;;;;;7.80;100.00;97910.25;5078091;28;19982;-74
2022/04/10 03:02:54;;;;;;;;;;;;;;;7.74;100.00;97906.69;5067233;28;19924;-74
2022/04/10 03:05:21;;;;;;;;;;;;;;;7.73;100.00;97914.91;5075029;28;19992;-74
2022/04/10 03:07:48;;;;;;;;;;;;;;;7.65;100.00;97916.13;5077357;28;19928;-73
2022/04/10 03:10:14;;;;;;;;;;;;;;;7.73;100.00;97905.09;5077511;28;19992;-73
2022/04/10 03:12:40;;;;;;;;;;;;;;;7.71;100.00;97909.03;5069616;28;19936;-73
2022/04/10 03:15:07;;;;;;;;;;;;;;;7.67;100.00;97915.91;5075358;28;20653;-73
2022/04/10 03:17:34;;;;;;;;;;;;;;;7.72;100.00;97916.78;5076839;28;19921;-72
2022/04/10 03:20:01;;;;;;;;;;;;;;;7.76;100.00;97912.59;5079570;28;19924;-73
2022/04/10 03:22:29;;;;;;;;;;;;;;;7.53;100.00;97915.41;5079786;28;19924;-74
2022/04/10 03:24:55;;;;;;;;;;;;;;;7.52;100.00;97914.59;5075862;28;20058;-74
2022/04/10 03:27:21;;;;;;;;;;;;;;;7.42;100.00;97914.47;5075401;28;19988;-74
2022/04/10 03:29:48;;;;;;;;;;;;;;;7.39;100.00;97911.50;5078169;28;19935;-73
2022/04/10 03:32:14;;;;;;;;;;;;;;;7.37;100.00;97911.72;5078653;28;20459;-73
2022/04/10 03:34:40;;;;;;;;;;;;;;;7.34;100.00;97911.41;5076308;28;19943;-74
2022/04/10 03:37:07;;;;;;;;;;;;;;;7.38;100.00;97918.66;5073378;28;19924;-73
2022/04/10 03:39:34;;;;;;;;;;;;;;;7.37;100.00;97911.72;5075275;28;19992;-74
2022/04/10 03:42:01;;;;;;;;;;;;;;;7.43;100.00;97921.38;5074868;28;19979;-73
2022/04/10 03:44:27;;;;;;;;;;;;;;;7.51;100.00;97917.53;5073655;28;20000;-74
2022/04/10 03:46:53;;;;;;;;;;;;;;;7.55;100.00;97927.41;5067109;28;19920;-75
2022/04/10 03:49:20;;;;;;;;;;;;;;;7.48;100.00;97926.78;5075305;28;19956;-73
2022/04/10 03:51:46;;;;;;;;;;;;;;;7.50;100.00;97922.03;5076175;28;20028;-74
2022/04/10 03:54:12;;;;;;;;;;;;;;;7.44;100.00;97938.94;5078425;28;19980;-74
2022/04/10 03:56:40;;;;;;;;;;;;;;;7.47;100.00;97930.47;5075437;28;19976;-74
2022/04/10 03:59:06;;;;;;;;;;;;;;;7.46;100.00;97933.38;5073857;28;19927;-74
2022/04/10 04:01:33;;;;;;;;;;;;;;;7.48;100.00;97933.94;5074171;28;19931;-74
2022/04/10 04:03:59;;;;;;;;;;;;;;;7.49;100.00;97936.34;5078240;28;19925;-74
2022/04/10 04:06:25;;;;;;;;;;;;;;;7.40;100.00;97934.34;5078285;28;19939;-74
2022/04/10 04:08:52;;;;;;;;;;;;;;;7.28;100.00;97942.41;5073571;28;19939;-74
2022/04/10 04:11:18;;;;;;;;;;;;;;;7.29;100.00;97944.00;5075757;28;19920;-75
2022/04/10 04:13:46;;;;;;;;;;;;;;;7.25;100.00;97944.72;5071655;28;19925;-75
2022/04/10 04:16:12;;;;;;;;;;;;;;;7.19;100.00;97946.50;5081036;28;19920;-74
2022/04/10 04:18:38;;;;;;;;;;;;;;;7.21;100.00;97946.28;5078939;28;19952;-75
2022/04/10 04:21:05;;;;;;;;;;;;;;;7.22;100.00;97951.31;5078703;28;19928;-74
2022/04/10 04:23:31;;;;;;;;;;;;;;;7.23;100.00;97955.59;5078676;28;19960;-73
2022/04/10 04:25:57;;;;;;;;;;;;;;;7.23;100.00;97952.94;5081705;28;20243;-74
2022/04/10 04:28:24;;;;;;;;;;;;;;;7.22;100.00;97959.28;5081160;28;20526;-74
2022/04/10 04:30:52;;;;;;;;;;;;;;;7.22;100.00;97959.28;5076638;28;19929;-74
2022/04/10 04:33:18;;;;;;;;;;;;;;;7.20;100.00;97968.56;5075311;28;19920;-74
2022/04/10 04:35:44;;;;;;;;;;;;;;;7.22;100.00;97969.91;5077786;28;19924;-74
2022/04/10 04:38:10;;;;;;;;;;;;;;;7.32;100.00;97983.38;5078371;28;19962;-74
2022/04/10 04:40:37;;;;;;;;;;;;;;;7.39;100.00;97978.72;5076910;28;19992;-75
2022/04/10 04:43:03;;;;;;;;;;;;;;;7.45;100.00;97983.06;5068771;28;19976;-74
2022/04/10 04:45:30;;;;;;;;;;;;;;;7.48;100.00;97990.56;5074882;28;19991;-75
2022/04/10 04:47:57;;;;;;;;;;;;;;;7.39;100.00;97978.72;5077402;28;20015;-74
2022/04/10 04:50:24;;;;;;;;;;;;;;;7.19;100.00;97993.50;5078445;28;19924;-74
2022/04/10 04:52:50;;;;;;;;;;;;;;;7.12;100.00;97998.94;5075026;28;19929;-74
2022/04/10 04:55:17;;;;;;;;;;;;;;;7.22;100.00;97991.16;5074847;28;19985;-73
2022/04/10 04:57:43;;;;;;;;;;;;;;;7.31;100.00;97997.69;5075578;28;19996;-73
2022/04/10 05:00:11;;;;;;;;;;;;;;;7.30;100.00;97993.44;5078135;28;19924;-74
2022/04/10 05:02:38;;;;;;;;;;;;;;;7.28;100.00;97994.72;5076620;28;19924;-73
2022/04/10 05:05:06;;;;;;;;;;;;;;;7.29;100.00;98007.75;5073314;28;19929;-73
2022/04/10 05:07:32;;;;;;;;;;;;;;;7.37;100.00;97996.72;5073737;28;20024;-73
2022/04/10 05:09:58;;;;;;;;;;;;;;;7.48;100.00;98013.66;5077938;28;19960;-74
2022/04/10 05:12:25;;;;;;;;;;;;;;;7.40;100.00;98017.50;5071091;28;19925;-75
2022/04/10 05:14:51;;;;;;;;;;;;;;;7.38;100.00;98014.28;5077564;28;19962;-74
2022/04/10 05:17:17;;;;;;;;;;;;;;;7.40;100.00;98020.16;5076591;28;20011;-74
2022/04/10 05:19:44;;;;;;;;;;;;;;;7.30;100.00;98022.66;5074031;28;19925;-74
2022/04/10 05:22:11;;;;;;;;;;;;;;;7.31;100.00;98031.41;5074202;28;19932;-74
2022/04/10 05:24:38;;;;;;;;;;;;;;;7.20;100.00;98040.25;5075592;28;19983;-74
2022/04/10 05:27:04;;;;;;;;;;;;;;;7.34;100.00;98029.09;5076397;28;19928;-74
2022/04/10 05:29:31;;;;;;;;;;;;;;;7.36;100.00;98032.34;5077020;28;20023;-74
2022/04/10 05:31:57;;;;;;;;;;;;;;;7.38;100.00;98040.88;5077739;28;19992;-74
2022/04/10 05:34:24;;;;;;;;;;;;;;;7.42;100.00;98051.81;5078026;28;19947;-73
2022/04/10 05:36:50;;;;;;;;;;;;;;;7.10;100.00;98048.84;5080994;28;19987;-74
2022/04/10 05:39:17;;;;;;;;;;;;;;;7.03;100.00;98054.28;5081531;28;19970;-75
2022/04/10 05:41:45;;;;;;;;;;;;;;;7.05;100.00;98067.34;5079027;28;20015;-74
2022/04/10 05:44:11;;;;;;;;;;;;;;;6.86;100.00;98065.91;5072178;28;19924;-74
2022/04/10 05:46:38;;;;;;;;;;;;;;;6.98;100.00;98064.00;5078496;28;19921;-74
2022/04/10 05:49:05;;;;;;;;;;;;;;;7.07;100.00;98075.88;5081193;28;19935;-74
2022/04/10 05:51:31;;;;;;;;;;;;;;;7.13;100.00;98072.28;5080539;28;19951;-74
2022/04/10 05:53:58;;;;;;;;;;;;;;;7.19;100.00;98071.31;5077603;28;19921;-74
2022/04/10 05:56:26;;;;;;;;;;;;;;;7.36;100.00;98074.84;5077591;28;19925;-74
2022/04/10 05:58:52;;;;;;;;;;;;;;;7.50;100.00;98086.78;5080387;28;19931;-74
2022/04/10 06:01:18;;;;;;;;;;;;;;;7.60;100.00;98086.97;5080755;28;19932;-74
2022/04/10 06:03:45;;;;;;;;;;;;;;;7.81;100.00;98084.63;5080623;28;19984;-74
2022/04/10 06:06:11;;;;;;;;;;;;;;;8.01;100.00;98095.63;5080185;28;20400;-74
2022/04/10 06:08:38;;;;;;;;;;;;;;;8.12;100.00;98097.38;5078873;28;19927;-74
2022/04/10 06:11:04;;;;;;;;;;;;;;;8.32;100.00;98108.38;5076880;28;19992;-74
2022/04/10 06:13:32;;;;;;;;;;;;;;;8.48;100.00;98107.53;5069890;28;20020;-74
2022/04/10 06:15:58;;;;;;;;;;;;;;;8.31;100.00;98111.28;5080240;28;19920;-74
2022/04/10 06:18:25;;;;;;;;;;;;;;;8.23;100.00;98109.81;5080358;28;19924;-74
2022/04/10 06:20:51;;;;;;;;;;;;;;;8.18;100.00;98119.53;5075548;28;19931;-74
2022/04/10 06:23:20;;;;;;;;;;;;;;;8.10;100.00;98113.59;5076773;28;19993;-74
2022/04/10 06:25:46;;;;;;;;;;;;;;;7.99;100.00;98116.31;5079588;28;19994;-73
2022/04/10 06:28:13;;;;;;;;;;;;;;;7.70;100.00;98125.41;5081188;28;19931;-74
2022/04/10 06:30:40;;;;;;;;;;;;;;;7.70;100.00;98125.41;5080271;28;19931;-73
2022/04/10 06:33:07;;;;;;;;;;;;;;;7.67;100.00;98134.66;5078147;28;19928;-74
2022/04/10 06:35:33;;;;;;;;;;;;;;;7.79;100.00;98137.25;5078958;28;19921;-73
2022/04/10 06:37:59;;;;;;;;;;;;;;;7.79;100.00;98137.25;5079464;28;20079;-74
2022/04/10 06:40:26;;;;;;;;;;;;;;;7.78;100.00;98136.44;5080954;28;19960;-74
2022/04/10 06:42:52;;;;;;;;;;;;;;;7.77;100.00;98139.34;5072871;28;19925;-74
2022/04/10 06:45:19;;;;;;;;;;;;;;;7.54;100.00;98150.91;5078791;28;20656;-74
2022/04/10 06:47:46;;;;;;;;;;;;;;;7.63;100.00;98133.53;5077417;28;19924;-74
2022/04/10 06:50:13;;;;;;;;;;;;;;;7.26;100.00;98143.72;5076658;28;19963;-74
2022/04/10 06:52:39;;;;;;;;;;;;;;;6.81;100.00;98150.72;5077755;28;19944;-74
2022/04/10 06:55:06;;;;;;;;;;;;;;;7.12;100.00;98150.31;5079444;28;20374;-74
2022/04/10 06:57:32;;;;;;;;;;;;;;;7.24;100.00;98153.75;5079017;28;19925;-74
2022/04/10 06:59:59;;;;;;;;;;;;;;;6.92;100.00;98147.25;5075942;28;19989;-74
2022/04/10 07:02:25;;;;;;;;;;;;;;;7.30;100.00;98147.53;5075812;28;19925;-73
2022/04/10 07:04:53;;;;;;;;;;;;;;;7.97;100.00;98145.00;5078017;28;19980;-74
2022/04/10 07:07:19;;;;;;;;;;;;;;;7.82;95.35;98150.06;5079845;28;19967;-74
2022/04/10 07:09:45;;;;;;;;;;;;;;;7.32;96.50;98141.97;5076887;28;19924;-74
2022/04/10 07:12:12;;;;;;;;;;;;;;;7.71;100.00;98145.59;5074677;28;19988;-74
2022/04/10 07:14:38;;;;;;;;;;;;;;;8.08;99.67;98146.78;5077129;28;19948;-74
2022/04/10 07:17:05;;;;;;;;;;;;;;;8.26;98.61;98149.22;5079619;28;19939;-74
2022/04/10 07:19:31;;;;;;;;;;;;;;;8.44;96.40;98154.34;5079125;28;19924;-74
2022/04/10 07:24:42;;;;;;;;;;;;;;;8.15;95.30;98156.22;5076843;28;19929;-74
2022/04/10 07:27:09;;;;;;;;;;;;;;;8.30;95.29;98165.53;5079421;28;19989;-74
2022/04/10 07:29:35;;;;;;;;;;;;;;;8.13;93.16;98158.34;5078402;28;19926;-74
2022/04/10 07:32:03;;;;;;;;;;;;;;;7.91;92.14;98156.63;5076092;28;19984;-74
2022/04/10 07:34:30;;;;;;;;;;;;;;;7.87;94.01;98169.56;5075478;28;20015;-74
2022/04/10 07:36:56;;;;;;;;;;;;;;;7.91;92.87;98160.09;5078142;28;19950;-74
2022/04/10 07:39:24;;;;;;;;;;;;;;;7.63;90.52;98162.75;5077840;28;19924;-75
2022/04/10 07:41:50;;;;;;;;;;;;;;;7.79;93.73;98158.53;5075919;28;19929;-73
2022/04/10 07:44:17;;;;;;;;;;;;;;;7.54;90.44;98167.66;5079832;28;19924;-73
2022/04/10 07:49:27;;;;;;;;;;;;;;;7.44;85.71;98167.44;5079058;28;19929;-74
2022/04/10 07:51:53;;;;;;;;;;;;;;;7.20;89.90;98176.53;5067395;28;19925;-73
2022/04/10 07:54:20;;;;;;;;;;;;;;;7.56;90.74;98170.88;5074079;28;19925;-73
2022/04/10 07:56:47;;;;;;;;;;;;;;;7.84;89.94;98169.25;5077010;28;19995;-73
2022/04/10 07:59:15;;;;;;;;;;;;;;;7.57;84.92;98172.50;5077762;28;19979;-73
2022/04/10 08:01:42;;;;;;;;;;;;;;;7.81;88.89;98183.81;5075796;28;19935;-76
2022/04/10 08:04:08;;;;;;;;;;;;;;;7.84;87.70;98174.56;5075637;28;19924;-74
2022/04/10 08:06:35;;;;;;;;;;;;;;;7.89;88.93;98180.00;5076329;28;20001;-74
2022/04/10 08:09:01;;;;;;;;;;;;;;;7.95;86.11;98184.34;5078748;28;20683;-73
2022/04/10 08:11:28;;;;;;;;;;;;;;;8.00;82.80;98190.56;5078753;28;19999;-74
2022/04/10 08:13:55;;;;;;;;;;;;;;;7.81;80.79;98188.31;5068161;28;19950;-74
2022/04/10 08:16:22;;;;;;;;;;;;;;;7.98;83.19;98183.88;5077416;28;20008;-74
2022/04/10 08:18:48;;;;;;;;;;;;;;;7.77;78.90;98197.84;5075707;28;20014;-74
2022/04/10 08:21:14;;;;;;;;;;;;;;;7.60;78.66;98181.84;5074992;28;19931;-74
2022/04/10 08:23:41;;;;;;;;;;;;;;;7.55;80.30;98190.50;5075766;28;20323;-74
2022/04/10 08:26:07;;;;;;;;;;;;;;;7.61;84.15;98186.91;5078414;28;19928;-74
2022/04/10 08:28:34;;;;;;;;;;;;;;;7.89;83.61;98195.94;5077741;28;19959;-74
2022/04/10 08:31:02;;;;;;;;;;;;;;;7.53;79.44;98187.28;5074845;28;19951;-74
2022/04/10 08:33:29;;;;;;;;;;;;;;;7.46;79.78;98197.25;5073637;28;19921;-75
2022/04/10 08:35:56;;;;;;;;;;;;;;;7.30;79.38;98203.31;5077009;28;19966;-74
2022/04/10 08:38:23;;;;;;;;;;;;;;;7.44;82.41;98202.00;5078158;28;19976;-74
2022/04/10 08:40:49;;;;;;;;;;;;;;;7.68;83.22;98209.88;5074856;28;19964;-75
2022/04/10 08:43:17;;;;;;;;;;;;;;;7.66;78.34;98206.66;5067320;28;19925;-74
2022/04/10 08:45:46;;;;;;;;;;;;;;;7.88;78.16;98207.59;5076345;28;20408;-74
2022/04/10 08:48:14;;;;;;;;;;;;;;;7.70;77.73;98211.28;5077608;28;19964;-73
2022/04/10 08:50:41;;;;;;;;;;;;;;;7.75;78.89;98223.84;5076519;28;20441;-74
2022/04/10 08:53:07;;;;;;;;;;;;;;;7.27;74.65;98225.00;5073273;28;19984;-75
2022/04/10 08:55:34;;;;;;;;;;;;;;;7.22;76.85;98219.59;5074560;28;19931;-75
2022/04/10 08:58:02;;;;;;;;;;;;;;;7.36;78.62;98225.47;5077340;28;19991;-74
2022/04/10 09:00:29;;;;;;;;;;;;;;;7.67;79.60;98217.06;5078009;28;19955;-74
2022/04/10 09:02:55;;;;;;;;;;;;;;;7.65;75.94;98220.97;5073096;28;20000;-75
2022/04/10 09:05:23;;;;;;;;;;;;;;;7.76;74.85;98214.84;5072595;28;19929;-74
2022/04/10 09:08:05;;;;;;;;;;;;;;;7.79;69.95;98227.66;5077296;28;19979;-74
2022/04/10 09:10:52;;;;;;;;;;;;;;;7.96;73.61;98221.31;5076041;28;19963;-75
2022/04/10 09:13:19;;;;;;;;;;;;;;;8.22;73.08;98232.41;5075464;28;19980;-73
2022/04/10 09:15:46;;;;;;;;;;;;;;;8.20;70.48;98229.97;5074773;28;19925;-74
2022/04/10 09:18:12;;;;;;;;;;;;;;;8.33;72.82;98231.56;5074179;28;20195;-75
2022/04/10 09:20:40;;;;;;;;;;;;;;;8.32;74.63;98208.69;5075449;28;20538;-74
2022/04/10 09:23:08;;;;;;;;;;;;;;;8.43;75.83;98231.75;5076871;28;19974;-74
2022/04/10 09:25:42;;;;;;;;;;;;;;;8.43;74.07;98219.25;5077093;28;19980;-75
2022/04/10 09:28:08;;;;;;;;;;;;;;;8.40;72.20;98225.06;5074251;28;19925;-74
2022/04/10 09:30:35;;;;;;;;;;;;;;;8.71;73.29;98226.34;5075281;28;19929;-75
2022/04/10 09:33:01;;;;;;;;;;;;;;;8.78;68.73;98220.84;5077832;28;20445;-75
2022/04/10 09:35:42;;;;;;;;;;;;;;;8.63;62.67;98224.88;5077544;28;19929;-75
2022/04/10 09:38:10;;;;;;;;;;;;;;;8.79;67.61;98222.47;5067523;28;19936;-75
2022/04/10 09:40:37;;;;;;;;;;;;;;;8.90;68.74;98218.91;5073926;28;19955;-75
2022/04/10 09:43:04;;;;;;;;;;;;;;;8.89;68.24;98226.09;5073183;28;19943;-74
2022/04/10 09:45:35;;;;;;;;;;;;;;;8.84;69.67;98219.88;5074777;28;19925;-74
2022/04/10 09:48:18;;;;;;;;;;;;;;;8.90;67.75;98216.25;5077881;28;19934;-75
2022/04/10 09:50:44;;;;;;;;;;;;;;;8.86;65.47;98218.59;5074249;28;19925;-75
2022/04/10 09:53:12;;;;;;;;;;;;;;;8.53;59.93;98206.13;5074509;28;19947;-74
2022/04/10 09:55:39;;;;;;;;;;;;;;;8.41;61.33;98208.06;5073992;28;20011;-75
2022/04/10 09:58:07;;;;;;;;;;;;;;;8.29;60.99;98207.31;5076812;28;19924;-73
2022/04/10 10:00:34;;;;;;;;;;;;;;;8.47;65.89;98206.28;5076131;28;19927;-74
2022/04/10 10:03:01;;;;;;;;;;;;;;;8.61;67.53;98211.03;5073958;28;19989;-75
2022/04/10 10:05:28;;;;;;;;;;;;;;;8.90;67.67;98216.25;5072892;28;20783;-74
2022/04/10 10:07:55;;;;;;;;;;;;;;;8.81;65.64;98225.69;5065652;28;20476;-75
2022/04/10 10:10:23;;;;;;;;;;;;;;;8.58;63.32;98208.84;5074130;28;19925;-74
2022/04/10 10:12:49;;;;;;;;;;;;;;;8.78;66.76;98208.34;5074480;28;19980;-74
2022/04/10 10:15:16;;;;;;;;;;;;;;;8.79;61.02;98212.59;5074447;28;19921;-74
2022/04/10 10:17:43;;;;;;;;;;;;;;;8.95;65.25;98206.47;5078010;28;19960;-74
2022/04/10 10:20:10;;;;;;;;;;;;;;;8.96;65.45;98212.59;5081543;28;19995;-74
2022/04/10 10:22:37;;;;;;;;;;;;;;;9.12;66.02;98211.75;5078588;28;19928;-74
2022/04/10 10:25:07;;;;;;;;;;;;;;;8.98;63.04;98213.97;5075998;28;20064;-74
2022/04/10 10:27:51;;;;;;;;;;;;;;;9.08;63.31;98210.63;5077873;28;19925;-75
2022/04/10 10:30:22;;;;;;;;;;;;;;;9.16;62.52;98205.69;5080757;28;19928;-73
2022/04/10 10:32:52;;;;;;;;;;;;;;;9.16;59.41;98207.53;5075926;28;19929;-74
2022/04/10 10:35:30;;;;;;;;;;;;;;;8.96;57.37;98207.28;5076657;28;19929;-74
2022/04/10 10:37:57;;;;;;;;;;;;;;;8.82;57.50;98206.78;5067833;28;20137;-73
2022/04/10 10:40:23;;;;;;;;;;;;;;;8.75;58.50;98194.72;5076506;28;19952;-74
2022/04/10 10:42:53;;;;;;;;;;;;;;;9.09;61.69;98206.94;5079310;28;20362;-74
2022/04/10 10:45:32;;;;;;;;;;;;;;;9.11;62.03;98205.63;5077893;28;19935;-74
2022/04/10 10:48:02;;;;;;;;;;;;;;;9.17;54.65;98201.16;5067984;28;19943;-74
2022/04/10 10:50:29;;;;;;;;;;;;;;;9.08;59.20;98199.97;5074544;28;19925;-74
2022/04/10 10:53:05;;;;;;;;;;;;;;;9.11;59.32;98200.28;5077981;28;19924;-74
2022/04/10 10:55:43;;;;;;;;;;;;;;;9.15;59.68;98195.28;5078806;28;19979;-74
2022/04/10 10:58:11;;;;;;;;;;;;;;;9.07;57.08;98203.69;5074469;28;20019;-74
2022/04/10 11:00:38;;;;;;;;;;;;;;;9.12;58.92;98206.44;5075346;28;19926;-73
2022/04/10 11:03:09;;;;;;;;;;;;;;;9.19;58.08;98207.06;5079334;28;19935;-74
2022/04/10 11:05:36;;;;;;;;;;;;;;;9.20;59.62;98198.81;5077917;28;19931;-74
2022/04/10 11:08:04;;;;;;;;;;;;;;;9.03;54.09;98206.06;5075839;28;19935;-74
2022/04/10 11:10:31;;;;;;;;;;;;;;;9.12;57.36;98196.59;5076236;28;19947;-75
2022/04/10 11:13:01;;;;;;;;;;;;;;;9.16;59.02;98202.19;5073946;28;19936;-73
2022/04/10 11:15:32;;;;;;;;;;;;;;;9.34;59.61;98198.47;5074405;28;19987;-72
2022/04/10 11:18:03;;;;;;;;;;;;;;;9.27;56.71;98193.31;5068211;28;19921;-73
2022/04/10 11:20:31;;;;;;;;;;;;;;;9.30;55.75;98194.66;5076707;28;19988;-74
2022/04/10 11:22:59;;;;;;;;;;;;;;;9.38;56.00;98199.56;5078471;28;19959;-74
2022/04/10 11:25:30;;;;;;;;;;;;;;;9.43;54.86;98192.44;5079367;28;19964;-75
2022/04/10 11:27:58;;;;;;;;;;;;;;;9.53;55.26;98192.53;5067554;28;19920;-73
2022/04/10 11:30:25;;;;;;;;;;;;;;;9.54;57.32;98196.03;5076100;28;20022;-74
2022/04/10 11:32:54;;;;;;;;;;;;;;;9.53;57.62;98189.09;5079041;28;19930;-74
2022/04/10 11:35:22;;;;;;;;;;;;;;;9.56;56.21;98197.38;5078817;28;19924;-74
2022/04/10 11:37:50;;;;;;;;;;;;;;;9.57;57.07;98192.84;5076025;28;19924;-74
2022/04/10 11:40:23;;;;;;;;;;;;;;;9.56;56.81;98188.59;5075153;28;19932;-74
2022/04/10 11:42:51;;;;;;;;;;;;;;;9.64;57.18;98196.16;5074695;28;19931;-75
2022/04/10 11:45:20;;;;;;;;;;;;;;;9.61;55.17;98200.13;5074671;28;20303;-75
2022/04/10 11:47:46;;;;;;;;;;;;;;;9.59;53.15;98193.44;5077425;28;19925;-74
2022/04/10 11:50:14;;;;;;;;;;;;;;;9.52;54.89;98200.81;5078733;28;19927;-73
2022/04/10 11:52:41;;;;;;;;;;;;;;;9.51;53.37;98194.66;5076164;28;19924;-74
2022/04/10 11:55:09;;;;;;;;;;;;;;;9.54;55.31;98194.16;5074251;28;19975;-75
2022/04/10 11:57:37;;;;;;;;;;;;;;;9.82;54.56;98193.13;5073792;28;19932;-74
2022/04/10 12:00:06;;;;;;;;;;;;;;;9.82;58.23;98192.34;5076184;28;19920;-73
2022/04/10 12:02:32;;;;;;;;;;;;;;;9.65;55.92;98187.09;5075791;28;19924;-73
2022/04/10 12:05:00;;;;;;;;;;;;;;;9.84;55.55;98195.56;5073439;28;19980;-75
2022/04/10 12:07:28;;;;;;;;;;;;;;;9.84;56.11;98187.56;5075008;28;19924;-74
2022/04/10 12:09:55;;;;;;;;;;;;;;;10.00;55.59;98198.13;5066423;28;19924;-75
2022/04/10 12:12:23;;;;;;;;;;;;;;;9.90;56.73;98189.22;5073146;28;19964;-73
2022/04/10 12:14:50;;;;;;;;;;;;;;;9.91;56.80;98193.50;5077262;28;19920;-74
2022/04/10 12:17:18;;;;;;;;;;;;;;;10.04;54.58;98187.75;5077796;28;19952;-74
2022/04/10 12:19:45;;;;;;;;;;;;;;;10.02;55.17;98189.88;5075563;28;19956;-73
2022/04/10 12:22:12;;;;;;;;;;;;;;;10.13;52.90;98200.44;5072904;28;19935;-73
2022/04/10 12:24:40;;;;;;;;;;;;;;;10.08;51.06;98180.88;5075110;28;19921;-73
2022/04/10 12:27:07;;;;;;;;;;;;;;;10.22;52.45;98184.75;5077372;28;19976;-73
2022/04/10 12:29:34;;;;;;;;;;;;;;;10.42;49.67;98184.94;5076513;28;19924;-73
2022/04/10 12:32:01;;;;;;;;;;;;;;;10.34;51.47;98185.38;5073668;28;19984;-74
2022/04/10 12:34:32;;;;;;;;;;;;;;;10.17;53.12;98179.38;5073737;28;19935;-74
2022/04/10 12:37:05;;;;;;;;;;;;;;;10.22;53.52;98184.75;5066113;28;19921;-74
2022/04/10 12:39:32;;;;;;;;;;;;;;;10.15;53.35;98184.19;5073546;28;19960;-73
2022/04/10 12:42:00;;;;;;;;;;;;;;;10.22;51.45;98188.22;5075464;28;19952;-73
2022/04/10 12:44:28;;;;;;;;;;;;;;;10.24;54.29;98185.31;5074204;28;19984;-72
2022/04/10 12:46:55;;;;;;;;;;;;;;;10.06;54.37;98177.63;5066626;28;19924;-74
2022/04/10 12:49:21;;;;;;;;;;;;;;;10.10;56.13;98178.75;5073944;28;19921;-73
2022/04/10 12:51:52;;;;;;;;;;;;;;;10.16;56.86;98183.09;5075657;28;20384;-73
2022/04/10 12:54:19;;;;;;;;;;;;;;;10.17;59.68;98187.38;5078444;28;19960;-74
2022/04/10 12:56:51;;;;;;;;;;;;;;;10.15;60.38;98178.84;5075764;28;19924;-73